Tiempo atmosférico en la estación meteorológica de Alfaro, La Rioja (285 m.)



Fecha
DESCASC
Temp. máxima en grados centígrados (hora)
DESCASC
Temp. mínima en grados centígrados (hora)
DESCASC
Temp. media en grados centígrados
DESCASC
Racha de viento máxima en m/sg (hora)
DESCASC
Velocidad máxima media en intervalos de 10 minutos(hora)
DESCASC
Precipitaciones diarias en mm
DESCASC
Precipitaciones de 00:00 a 06:00 en mm
DESCASC
Precipitaciones de 06:00 a 12:00 en mm
DESCASC
Precipitaciones de 12:00 a 18:00 en mm
DESCASC
Precipitaciones de 18:00 a 24:00 en mm
DESCASC
18-02-2018 13.3 (14:10) 3.3 (05:20) 8.3 13.61 (12:20) 8.61 (12:00) 0 0 0 0 0
17-02-2018 13.3 (16:10) 4.7 (23:20) 9 11.67 (17:00) 8.06 (17:00) 0 0 0 0 0
16-02-2018 18.9 (16:30) 3.3 (07:00) 11.1 6.39 (16:00) 4.44 (17:00) 0 0 0 0 0
15-02-2018 13.7 (17:30) 1.9 (00:00) 7.8 2.78 (12:20) 2.5 (20:50) 0.2 0.2 0 0 0
14-02-2018 10.1 (15:30) 0.7 (00:00) 5.4 3.06 (12:40) 1.67 (13:00) 2 0.4 0 1.6 0
13-02-2018 5.8 (16:30) -3.1 (-00:0) 1.4 7.78 (12:40) 5.28 (12:40) 0 0 0 0 0
12-02-2018 8.5 (14:10) 0 (00:00) 4.3 11.11 (16:10) 7.78 (15:30) 0 0 0 0 0
11-02-2018 15.9 (14:00) 2.3 (00:00) 9.1 13.06 (16:00) 8.33 (15:20) 2.2 0 0 0.8 1.4
10-02-2018 8.1 (15:30) 2.9 (00:00) 5.5 10.83 (01:40) 6.94 (01:40) 0.6 0 0.6 0 0
09-02-2018 8 (17:30) -4.1 (-00:0) 2 13.61 (18:40) 8.33 (18:40) 0 0 0 0 0
08-02-2018 7.5 (13:50) -0.4 (00:00) 3.5 14.17 (12:00) 9.72 (11:40) 0 0 0 0 0
07-02-2018 7.3 (15:30) -0.2 (00:00) 3.6 12.22 (11:40) 7.5 (16:30) 0 0 0 0 0
06-02-2018 6.7 (14:40) 1.8 (00:00) 4.2 15.28 (14:20) 8.33 (14:30) 0 0 0 0 0
05-02-2018 4.7 (12:30) 2.9 (00:00) 3.8 10.56 (19:30) 6.94 (17:00) 7.6 0.4 2.2 2.2 2.8
04-02-2018 6.6 (14:40) 3.4 (00:00) 5 8.33 (12:30) 5.56 (11:20) 8 0.6 0 1.2 6.2
03-02-2018 9.7 (15:30) 2.9 (00:00) 6.3 10.28 (07:40) 6.39 (02:50) 0.4 0 0 0.2 0.2
02-02-2018 8.1 (12:30) 1.6 (00:00) 4.9 14.44 (12:50) 9.72 (12:50) 0 0 0 0 0
01-02-2018 10.7 (13:30) 0.5 (00:00) 5.6 13.61 (15:20) 8.61 (13:50) 0.2 0 0.2 0 0
31-01-2018 12 (17:10) -2.8 (-00:0) 4.6 2.5 (13:00) 1.94 (21:20) 0 0 0 0 0
30-01-2018 13.3 (16:30) -1.8 (-00:0) 5.8 2.5 (00:30) 1.94 (19:10) 0 0 0 0 0
29-01-2018 15.2 (16:40) -1.9 (-00:0) 6.6 2.78 (10:30) 1.94 (18:20) 0 0 0 0 0
28-01-2018 13.7 (17:30) 0.9 (00:00) 7.3 7.78 (10:40) 5.28 (10:40) 0 0 0 0 0
27-01-2018 10 (16:10) 2.7 (00:00) 6.4 16.11 (14:00) 10.83 (13:40) 0.8 0.8 0 0 0
26-01-2018 10.1 (15:10) 4.3 (00:00) 7.2 16.39 (12:20) 11.11 (12:20) 5.1 0.4 0 1.9 2.8
25-01-2018 8.9 (13:20) 5.2 (00:00) 7 10.56 (10:50) 7.22 (10:40) 4.8 0 0 1.4 3.4
24-01-2018 9.1 (16:30) 1.2 (00:00) 5.2 3.06 (05:50) 1.94 (05:50) 0 0 0 0 0
23-01-2018 17.3 (14:50) 6.1 (00:00) 11.7 9.72 (14:40) 6.11 (13:10) 0 0 0 0 0
22-01-2018 16.5 (16:00) 6.5 (00:00) 11.5 11.39 (13:20) 7.78 (14:50) 0 0 0 0 0

Gráficas

Temp. máximas Temp. mínimas Temp. medias Precipitaciones Rachas de viento máximas Velocidades máximas media en intervalos de 10 minutos

Datos horarios

Fecha y hora oficial Temperatura (ºC) Velocidad del viento (km/h) Dirección del viento Racha (km/h) Dirección de racha Precipitación (mm) Presión (hPa) Tendencia (hPa) Humedad (%)
2018-02-20 23:00:00 8.5 25 Noroeste 42 Noroeste 0 -- -- 80
2018-02-20 22:00:00 8.5 21 Noroeste 33 Noroeste 0 -- -- 74
2018-02-20 21:00:00 8.9 20 Noroeste 31 Noroeste 0 -- -- 71
2018-02-20 20:00:00 8.8 22 Noroeste 36 Noroeste 0 -- -- 72
2018-02-20 19:00:00 9.5 23 Noroeste 43 Noroeste 0 -- -- 71
2018-02-20 18:00:00 10.4 23 Noroeste 43 Noroeste 0 -- -- 73
2018-02-20 17:00:00 11.5 27 Norte 51 Noroeste 0 -- -- 60
2018-02-20 16:00:00 12.4 34 Noroeste 58 Noroeste 0 -- -- 60
2018-02-20 15:00:00 11.9 33 Noroeste 61 Norte 0 -- -- 62
2018-02-20 14:00:00 11.6 31 Noroeste 57 Noroeste 0 -- -- 66
2018-02-20 13:00:00 11.5 36 Noroeste 59 Noroeste 0 -- -- 69
2018-02-20 12:00:00 11.1 39 Noroeste 57 Noroeste 0 -- -- 71
2018-02-20 11:00:00 11.6 32 Noroeste 50 Noroeste 0 -- -- 71
2018-02-20 10:00:00 11 25 Noroeste 48 Noroeste 0 -- -- 76
2018-02-20 09:00:00 9.8 31 Noroeste 46 Noroeste 0 -- -- 81
2018-02-20 08:00:00 9.7 26 Noroeste 42 Noroeste 0 -- -- 80
2018-02-20 07:00:00 10.1 27 Noroeste 42 Noroeste 0 -- -- 78
2018-02-20 06:00:00 9.9 30 Noroeste 49 Noroeste -- -- -- 80
2018-02-20 05:00:00 10.5 34 Noroeste 50 Noroeste 0 -- -- 79
2018-02-20 04:00:00 10.7 31 Noroeste 48 Noroeste 0 -- -- 80
2018-02-20 03:00:00 10.6 27 Noroeste 42 Noroeste 0 -- -- 80
2018-02-20 02:00:00 10.2 26 Noroeste 42 Noroeste 0 -- -- 83
2018-02-20 01:00:00 9.9 21 Noroeste 36 Noroeste 0 -- -- 83
2018-02-20 00:00:00 9.7 18 Noroeste 30 Noroeste 0 -- -- 83
2018-02-19 23:00:00 9.6 15 Noroeste 26 Noroeste 0 -- -- 83
2018-02-19 22:00:00 10 12 Noroeste 30 Noroeste 0 -- -- 81
2018-02-19 21:00:00 10.6 15 Noroeste 31 Noroeste 0 -- -- 79
2018-02-19 20:00:00 11.2 23 Noroeste 35 Noroeste 0 -- -- 77
2018-02-19 19:00:00 11.6 18 Noroeste 40 Noroeste 0 -- -- 73
2018-02-19 18:00:00 12.4 25 Noroeste 40 Noroeste 0 -- -- 69
2018-02-19 17:00:00 13.3 26 Noroeste 44 Noroeste 0 -- -- 67
2018-02-19 16:00:00 13.3 26 Noroeste 45 Noroeste 0 -- -- 68
2018-02-19 15:00:00 13.7 27 Noroeste 40 Noroeste 0 -- -- 65
2018-02-19 14:00:00 13.8 25 Noroeste 44 Noroeste 0 -- -- 65
2018-02-19 13:00:00 13.8 27 Noroeste 37 Noroeste 0 -- -- 63
2018-02-19 12:00:00 13.1 21 Noroeste 39 Noroeste 0 -- -- 67
2018-02-19 11:00:00 12 22 Noroeste 39 Noroeste 0 -- -- 70
2018-02-19 10:00:00 10.8 17 Noroeste 32 Noroeste 0 -- -- 74
2018-02-19 09:00:00 9.3 13 Noroeste 26 Noroeste 0 -- -- 80
2018-02-19 08:00:00 9 14 Noroeste 28 Oeste 0 -- -- 79
2018-02-19 07:00:00 8.6 12 Noroeste 28 Noroeste 0 -- -- 79
2018-02-19 06:00:00 8.6 18 Noroeste 32 Noroeste 0 -- -- 79
2018-02-19 05:00:00 8.2 19 Noroeste 33 Noroeste 0 -- -- 81
2018-02-19 04:00:00 7.5 11 Noroeste 22 Noroeste 0 -- -- 84
2018-02-19 03:00:00 8.4 16 Noroeste 26 Noroeste 0 -- -- 82
2018-02-19 02:00:00 8.2 15 Noroeste 21 Noroeste 0 -- -- 84
2018-02-19 01:00:00 8.2 11 Noroeste 30 Noroeste 0 -- -- 81
2018-02-19 00:00:00 8.9 15 Noroeste 26 Noroeste 0 -- -- 79
2018-02-18 23:00:00 9.4 15 Noroeste 23 Noroeste 0 -- -- 78
2018-02-18 22:00:00 9.4 17 Noroeste 32 Noroeste 0 -- -- 77
2018-02-18 21:00:00 9.8 18 Noroeste 28 Noroeste 0 -- -- 75
2018-02-18 20:00:00 9.6 17 Noroeste 30 Noroeste 0 -- -- 75
2018-02-18 19:00:00 10.1 19 Noroeste 39 Noroeste 0 -- -- 73
2018-02-18 18:00:00 10.7 27 Noroeste 40 Noroeste 0 -- -- 70
2018-02-18 17:00:00 11.2 27 Noroeste 42 Noroeste 0 -- -- 67
2018-02-18 16:00:00 12.3 27 Noroeste 42 Noroeste 0 -- -- 62
2018-02-18 15:00:00 11.9 24 Noroeste 39 Noroeste 0 -- -- 62
2018-02-18 14:00:00 12.6 23 Noroeste 48 Noroeste 0 -- -- 61
2018-02-18 13:00:00 9.8 28 Noroeste 49 Noroeste 0 -- -- 67
2018-02-18 12:00:00 10.3 31 Noroeste 46 Noroeste 0 -- -- 65
2018-02-18 11:00:00 9.8 26 Noroeste 41 Noroeste 0 -- -- 66
2018-02-18 10:00:00 8.3 20 Noroeste 32 Noroeste 0 -- -- 76
2018-02-18 09:00:00 5.4 19 Noroeste 29 Noroeste 0 -- -- 86
2018-02-18 08:00:00 4 13 Noroeste 31 Noroeste 0 -- -- 87
2018-02-18 07:00:00 3.9 17 Noroeste 27 Noroeste 0 -- -- 89
2018-02-18 06:00:00 3.7 13 Noroeste 23 Noroeste 0 -- -- 91
2018-02-18 05:00:00 3.6 10 Norte 21 Noroeste 0 -- -- 89
2018-02-18 04:00:00 4.6 12 Noroeste 19 Oeste 0 -- -- 86
2018-02-18 03:00:00 4.5 13 Noroeste 21 Noroeste 0 -- -- 86
2018-02-18 02:00:00 4.8 13 Noroeste 23 Noroeste 0 -- -- 84
2018-02-18 01:00:00 4.5 15 Noroeste 25 Noroeste 0 -- -- 87
2018-02-18 00:00:00 5.3 15 Noroeste 24 Noroeste 0 -- -- 82
2018-02-17 23:00:00 5 12 Noroeste 24 Noroeste 0 -- -- 83
2018-02-17 22:00:00 5.5 12 Noroeste 17 Noroeste 0 -- -- 83
2018-02-17 21:00:00 6.3 14 Noroeste 21 Noroeste 0 -- -- 79
2018-02-17 20:00:00 7.2 14 Noroeste 25 Noroeste 0 -- -- 77
2018-02-17 19:00:00 8.6 14 Noroeste 34 Noroeste 0 -- -- 69
2018-02-17 18:00:00 10.1 24 Noroeste 41 Noroeste 0 -- -- 61
2018-02-17 17:00:00 11.5 29 Noroeste 42 Noroeste 0 -- -- 61
2018-02-17 16:00:00 13 25 Noroeste 35 Noroeste 0 -- -- 56
2018-02-17 15:00:00 11.4 22 Norte 37 Noroeste 0 -- -- 59
2018-02-17 14:00:00 10.9 26 Noroeste 39 Noroeste 0 -- -- 70
2018-02-17 13:00:00 11.2 27 Noroeste 38 Noroeste 0 -- -- 72
2018-02-17 12:00:00 10.4 23 Noroeste 35 Noroeste 0 -- -- 75
2018-02-17 11:00:00 9.6 19 Noroeste 34 Noroeste 0 -- -- 79
2018-02-17 10:00:00 9.4 13 Noroeste 25 Noroeste 0 -- -- 81
2018-02-17 09:00:00 9.7 14 Noroeste 24 Noroeste 0 -- -- 83
2018-02-17 08:00:00 10 13 Noroeste 26 Noroeste 0 -- -- 82
2018-02-17 07:00:00 10 9 Norte 19 Noroeste 0 -- -- 96
2018-02-17 06:00:00 8.2 6 Oeste 11 Noroeste 0 -- -- 98
2018-02-17 05:00:00 8.4 0 Calma 9 Noroeste 0 -- -- 94
2018-02-17 04:00:00 9.7 3 Oeste 13 Norte 0 -- -- 96
2018-02-17 03:00:00 9.8 4 Norte 9 Noroeste 0 -- -- 97
2018-02-17 02:00:00 9.4 2 Noroeste 5 Nordeste 0 -- -- 95
2018-02-17 01:00:00 9.4 2 Nordeste 7 Este 0 -- -- 95
2018-02-17 00:00:00 9.5 4 Sudeste 8 Sudeste 0 -- -- 93
2018-02-16 23:00:00 10.3 3 Sudeste 9 Sudeste 0 -- -- 91
2018-02-16 22:00:00 11.4 6 Sudeste 9 Sudeste 0 -- -- 88
2018-02-16 21:00:00 11.9 0 Calma 6 Nordeste 0 -- -- 88
2018-02-16 20:00:00 12.9 4 Sudoeste 6 Sur 0 -- -- 84
2018-02-16 19:00:00 14.3 4 Sur 10 Sudeste 0 -- -- 80
2018-02-16 18:00:00 16.3 7 Sudeste 19 Sudeste 0 -- -- 67
2018-02-16 17:00:00 18.1 16 Sudeste 23 Sudeste 0 -- -- 61
2018-02-16 16:00:00 18.5 12 Sudeste 23 Sudeste 0 -- -- 61
2018-02-16 15:00:00 17.9 12 Sudeste 16 Sudeste 0 -- -- 65
2018-02-16 14:00:00 15.8 10 Sudeste 14 Sudeste 0 -- -- 75
2018-02-16 13:00:00 12.6 2 Este 6 Norte 0 -- -- 89
2018-02-16 12:00:00 9.2 0 Calma 7 Nordeste 0 -- -- 100
2018-02-16 11:00:00 7.7 4 Nordeste 10 Norte 0 -- -- 100
2018-02-16 10:00:00 6.3 0 Calma 4 Sudeste 0 -- -- 100
2018-02-16 09:00:00 4.2 3 Sudeste 4 Sudeste 0 -- -- 100
2018-02-16 08:00:00 3.4 0 Calma 4 Norte 0 -- -- 100
2018-02-16 07:00:00 3.3 2 Sur 6 Sur 0 -- -- 99
2018-02-16 06:00:00 3.5 5 Sur 6 Sur 0 -- -- 99
2018-02-16 05:00:00 4.2 0 Calma -- -- 0 -- -- 98
2018-02-16 04:00:00 5 3 Sudoeste 7 Sur 0 -- -- 98
2018-02-16 03:00:00 5.7 2 Oeste 8 Sur 0 -- -- 98
2018-02-16 02:00:00 6.1 0 Calma 5 Oeste 0 -- -- 98
2018-02-16 01:00:00 6.6 3 Oeste 6 Norte 0 -- -- 96
2018-02-16 00:00:00 8.1 0 Calma 5 Sudoeste 0 -- -- 95
2018-02-15 23:00:00 8.9 5 Sudeste 6 Sudeste 0 -- -- 94
2018-02-15 22:00:00 9.5 0 Calma 9 Sur 0 -- -- 93
2018-02-15 21:00:00 10.3 7 Sur 10 Sur 0 -- -- 92
2018-02-15 20:00:00 11.1 0 Calma 6 Norte 0 -- -- 90
2018-02-15 19:00:00 12.1 0 Calma 3 Norte 0 -- -- 86
2018-02-15 18:00:00 13.6 0 Calma 2 Sudoeste 0 -- -- 83
2018-02-15 17:00:00 13.5 3 Sudoeste 6 Sur 0 -- -- 82
2018-02-15 16:00:00 13.1 4 Sudoeste 9 Noroeste 0 -- -- 81
2018-02-15 15:00:00 12.4 6 Noroeste 10 Noroeste 0 -- -- 85
2018-02-15 14:00:00 12.1 7 Noroeste 10 Noroeste 0 -- -- 87
2018-02-15 13:00:00 10.9 4 Norte 10 Este 0 -- -- 95
2018-02-15 12:00:00 8.6 5 Nordeste 8 Nordeste 0 -- -- 100
2018-02-15 11:00:00 5.9 5 Nordeste 8 Nordeste 0 -- -- 100
2018-02-15 10:00:00 3.5 3 Este 8 Nordeste 0 -- -- 100
2018-02-15 09:00:00 2.4 4 Nordeste 6 Nordeste 0 -- -- 100
2018-02-15 08:00:00 2.2 2 Sur 5 Sur 0 -- -- 100
2018-02-15 07:00:00 2.6 0 Calma 5 Oeste 0 -- -- 100
2018-02-15 06:00:00 2.7 0 Calma 5 Nordeste 0 -- -- 100
2018-02-15 05:00:00 2.8 2 Sudeste 3 Sudoeste 0.2 -- -- 100
2018-02-15 04:00:00 3.5 2 Sur 4 Oeste 0 -- -- 100
2018-02-15 03:00:00 3.5 0 Calma 5 Sudoeste 0 -- -- 100
2018-02-15 02:00:00 3.3 0 Calma 6 Norte 0 -- -- 100
2018-02-15 01:00:00 3.1 0 Calma 4 Sudeste 0 -- -- 99
2018-02-15 00:00:00 3.6 3 Sur 7 Sudeste 0 -- -- 99
2018-02-14 23:00:00 4.3 4 Sudoeste 5 Oeste 0 -- -- 98
2018-02-14 22:00:00 5.4 2 Noroeste 4 Noroeste 0 -- -- 97
2018-02-14 21:00:00 6.3 0 Calma 0 Calma 0 -- -- 96
2018-02-14 20:00:00 7.8 0 Calma 4 Sudeste 0 -- -- 94
2018-02-14 19:00:00 9 0 Calma 6 Este 0 -- -- 95
2018-02-14 18:00:00 9.7 4 Sudeste 8 Sudeste 0 -- -- 93
2018-02-14 17:00:00 10 3 Sudeste 10 Sudeste 0 -- -- 93
2018-02-14 16:00:00 9.9 4 Este 8 Este 0.8 -- -- 93
2018-02-14 15:00:00 9.9 3 Sudeste 6 Sudeste 0.6 -- -- 89
2018-02-14 14:00:00 9.4 4 Nordeste 10 Nordeste 0.2 -- -- 85
2018-02-14 13:00:00 9.6 6 Nordeste 11 Este 0 -- -- 79
2018-02-14 12:00:00 7.1 4 Este 9 Este 0 -- -- 90
2018-02-14 11:00:00 5.8 3 Este 8 Este 0 -- -- 98
2018-02-14 10:00:00 3.4 0 Calma 2 Sudoeste 0 -- -- 100
2018-02-14 09:00:00 1.8 0 Calma 0 Calma 0 -- -- 100
2018-02-14 08:00:00 0.9 0 Calma 5 Sudoeste 0 -- -- 99
2018-02-14 07:00:00 1.2 0 Calma 3 Sudoeste 0 -- -- 98
2018-02-14 06:00:00 2 0 Calma 4 Nordeste 0 -- -- 99
2018-02-14 05:00:00 2.8 3 Nordeste 6 Nordeste 0 -- -- 99
2018-02-14 04:00:00 2.9 0 Calma 3 Sudoeste 0 -- -- 98
2018-02-14 03:00:00 2.8 2 Sudoeste 8 Norte 0.4 -- -- 97
2018-02-14 02:00:00 2.9 3 Sudoeste 6 Nordeste 0 -- -- 96
2018-02-14 01:00:00 2.8 2 Sur 6 Sudoeste 0 -- -- 95
2018-02-14 00:00:00 2.8 3 Sudoeste 8 Sudoeste 0 -- -- 94
2018-02-13 23:00:00 2.5 4 Norte 12 Norte 0 -- -- 93
2018-02-13 22:00:00 2.8 2 Este 8 Este 0 -- -- 89
2018-02-13 21:00:00 3.2 2 Sudeste 8 Sudoeste 0 -- -- 88
2018-02-13 20:00:00 3.8 3 Sudeste 6 Sudoeste 0 -- -- 85
2018-02-13 19:00:00 4.6 5 Sur 7 Sudoeste 0 -- -- 83
2018-02-13 18:00:00 5.4 6 Sudoeste 7 Sudoeste 0 -- -- 80
2018-02-13 17:00:00 5.8 0 Calma 6 Norte 0 -- -- 71
2018-02-13 16:00:00 5.4 0 Calma 7 Noroeste 0 -- -- 73
2018-02-13 15:00:00 4.8 5 Noroeste 9 Noroeste 0 -- -- 76
2018-02-13 14:00:00 3.6 6 Noroeste 21 Noroeste 0 -- -- 80
2018-02-13 13:00:00 2.2 14 Noroeste 28 Noroeste 0 -- -- 87
2018-02-13 12:00:00 1.1 13 Noroeste 20 Noroeste 0 -- -- 93
2018-02-13 11:00:00 -0.2 3 Noroeste 8 Norte 0 -- -- 97
2018-02-13 10:00:00 -1.1 3 Noroeste 8 Norte 0 -- -- 98
2018-02-13 09:00:00 -1.8 3 Noroeste 9 Norte 0 -- -- 98
2018-02-13 08:00:00 -2.7 2 Este 11 Este 0 -- -- 97
2018-02-13 07:00:00 -2.5 5 Este 13 Sudeste 0 -- -- 95
2018-02-13 06:00:00 -1.8 12 Sudeste 21 Sudeste 0 -- -- 95
2018-02-13 05:00:00 -2.9 2 Sudeste 5 Sudeste 0 -- -- 96
2018-02-13 04:00:00 -3.1 3 Este 6 Este 0 -- -- 96
2018-02-13 03:00:00 -2.7 0 Calma 8 Sudoeste 0 -- -- 94
2018-02-13 02:00:00 -2 0 Calma 5 Sudoeste 0 -- -- 92
2018-02-13 01:00:00 -0.8 5 Sudoeste 13 Noroeste 0 -- -- 91
2018-02-13 00:00:00 0 9 Noroeste 13 Noroeste 0 -- -- 88
2018-02-12 23:00:00 0.8 10 Noroeste 17 Noroeste 0 -- -- 86
2018-02-12 22:00:00 1.1 0 Calma 15 Noroeste 0 -- -- 83
2018-02-12 21:00:00 2.1 10 Noroeste 18 Noroeste 0 -- -- 81
2018-02-12 20:00:00 2.8 5 Noroeste 15 Noroeste 0 -- -- 77
2018-02-12 19:00:00 4.4 9 Noroeste 31 Norte 0 -- -- 70
2018-02-12 18:00:00 6.8 18 Norte 39 Noroeste 0 -- -- 52
2018-02-12 17:00:00 7.3 23 Noroeste 40 Oeste 0 -- -- 65
2018-02-12 16:00:00 6.6 26 Noroeste 40 Oeste 0 -- -- 69
2018-02-12 15:00:00 7.7 28 Oeste 39 Oeste 0 -- -- 75
2018-02-12 14:00:00 8.3 23 Noroeste 33 Noroeste 0 -- -- 60
2018-02-12 13:00:00 7.3 20 Norte 36 Noroeste 0 -- -- 64
2018-02-12 12:00:00 8.2 22 Noroeste 35 Noroeste 0 -- -- 64
2018-02-12 11:00:00 6.8 18 Noroeste 33 Noroeste 0 -- -- 71
2018-02-12 10:00:00 5.8 21 Noroeste 32 Noroeste 0 -- -- 78
2018-02-12 09:00:00 3.9 12 Noroeste 35 Noroeste 0 -- -- 85
2018-02-12 08:00:00 4.1 23 Noroeste 31 Noroeste 0 -- -- 86
2018-02-12 07:00:00 4.9 21 Noroeste 29 Noroeste 0 -- -- 85
2018-02-12 06:00:00 5.4 16 Noroeste 31 Noroeste 0 -- -- 83
2018-02-12 05:00:00 5.7 19 Noroeste 35 Noroeste 0 -- -- 82
2018-02-12 04:00:00 6.2 18 Oeste 24 Noroeste 0 -- -- 85
2018-02-12 03:00:00 6.4 9 Noroeste 20 Noroeste 0 -- -- 83
2018-02-12 02:00:00 6.7 15 Noroeste 25 Noroeste 0 -- -- 86
2018-02-12 01:00:00 7 10 Noroeste 26 Noroeste 0 -- -- 87
2018-02-12 00:00:00 7.2 17 Noroeste 26 Noroeste 0 -- -- 87
2018-02-11 23:00:00 7.4 22 Noroeste 36 Noroeste 0 -- -- 88
2018-02-11 22:00:00 7.8 19 Noroeste 33 Noroeste 0.4 -- -- 87
2018-02-11 21:00:00 9 7 Noroeste 22 Noroeste 0.6 -- -- 94
2018-02-11 20:00:00 9.7 9 Noroeste 14 Noroeste 0.4 -- -- 92
2018-02-11 19:00:00 9.9 10 Noroeste 22 Noroeste 0 -- -- 89
2018-02-11 18:00:00 10.2 7 Norte 17 Oeste 0.4 -- -- 90
2018-02-11 17:00:00 11.2 15 Noroeste 44 Noroeste 0.4 -- -- 82
2018-02-11 16:00:00 12.5 28 Noroeste 47 Norte 0 -- -- 70
2018-02-11 15:00:00 14.5 21 Noroeste 37 Noroeste 0 -- -- 63
2018-02-11 14:00:00 15.9 19 Noroeste 31 Noroeste 0 -- -- 60
2018-02-11 13:00:00 13 6 Noroeste 13 Sudoeste 0 -- -- 70
2018-02-11 12:00:00 10.4 4 Sudoeste 9 Sur 0 -- -- 77
2018-02-11 11:00:00 8.2 4 Sur 9 Sur 0 -- -- 83
2018-02-11 10:00:00 5.8 6 Sudoeste 9 Sudoeste 0 -- -- 98
2018-02-11 09:00:00 3 0 Calma 5 Sudoeste 0 -- -- 98
2018-02-11 08:00:00 2.4 2 Sudoeste 7 Oeste 0 -- -- 96
2018-02-11 07:00:00 3.5 3 Oeste 8 Sudoeste 0 -- -- 94
2018-02-11 06:00:00 5.1 3 Norte 7 Norte 0 -- -- 93
2018-02-11 05:00:00 5.3 0 Calma 9 Noroeste 0 -- -- 93
2018-02-11 04:00:00 5.1 3 Oeste 8 Sur 0 -- -- 93
2018-02-11 03:00:00 4.8 4 Sudoeste 6 Sudoeste 0 -- -- 93
2018-02-11 02:00:00 5.1 0 Calma 9 Oeste 0 -- -- 92
2018-02-11 01:00:00 5.3 2 Oeste 6 Oeste 0 -- -- 91
2018-02-11 00:00:00 5.4 4 Noroeste 8 Noroeste 0 -- -- 90
2018-02-10 23:00:00 5.4 4 Norte 17 Noroeste 0 -- -- 89
2018-02-10 22:00:00 5.7 10 Noroeste 19 Noroeste 0 -- -- 88
2018-02-10 21:00:00 5.4 9 Noroeste 17 Noroeste 0 -- -- 89
2018-02-10 20:00:00 5.6 11 Noroeste 24 Noroeste 0 -- -- 84
2018-02-10 19:00:00 6.4 20 Noroeste 33 Noroeste 0 -- -- 78
2018-02-10 18:00:00 6.8 18 Noroeste 33 Noroeste 0 -- -- 77
2018-02-10 17:00:00 7.4 19 Noroeste 32 Noroeste 0 -- -- 75
2018-02-10 16:00:00 7.5 15 Norte 32 Noroeste 0 -- -- 73
2018-02-10 15:00:00 6.8 21 Noroeste 34 Noroeste -- -- -- 82
2018-02-10 14:00:00 6.2 15 Norte 24 Norte 0 -- -- 81
2018-02-10 13:00:00 6.2 15 Norte 26 Norte 0 -- -- 81
2018-02-10 12:00:00 5.1 17 Norte 27 Norte 0 -- -- 87
2018-02-10 11:00:00 4 13 Norte 31 Norte 0.6 -- -- 94
2018-02-10 10:00:00 4 15 Norte 25 Noroeste 0 -- -- 89
2018-02-10 09:00:00 4 15 Norte 24 Norte 0 -- -- 84
2018-02-10 08:00:00 3.6 11 Norte 20 Noroeste 0 -- -- 80
2018-02-10 07:00:00 3.7 13 Noroeste 24 Norte 0 -- -- 79
2018-02-10 06:00:00 4.3 14 Noroeste 28 Norte 0 -- -- 75
2018-02-10 05:00:00 4 17 Noroeste 31 Norte 0 -- -- 79
2018-02-10 04:00:00 4.2 21 Noroeste 34 Noroeste 0 -- -- 77
2018-02-10 03:00:00 3.1 10 Noroeste 32 Norte 0 -- -- 84
2018-02-10 02:00:00 3.5 23 Noroeste 39 Noroeste 0 -- -- 83
2018-02-10 01:00:00 4 18 Noroeste 36 Noroeste 0 -- -- 80
2018-02-10 00:00:00 4.5 22 Noroeste 36 Noroeste 0 -- -- 79
2018-02-09 23:00:00 4.4 15 Noroeste 33 Noroeste 0 -- -- 78
2018-02-09 22:00:00 4.9 19 Noroeste 34 Noroeste 0 -- -- 83
2018-02-09 21:00:00 5.1 11 Noroeste 22 Noroeste 0 -- -- 84
2018-02-09 20:00:00 5.8 16 Noroeste 38 Noroeste 0 -- -- 85
2018-02-09 19:00:00 6.7 27 Noroeste 49 Noroeste 0 -- -- 80
2018-02-09 18:00:00 7.8 26 Noroeste 38 Noroeste 0 -- -- 77
2018-02-09 17:00:00 7.5 10 Noroeste 25 Noroeste 0 -- -- 82
2018-02-09 16:00:00 6.7 13 Noroeste 24 Noroeste 0 -- -- 86
2018-02-09 15:00:00 6.4 4 Sudoeste 9 Oeste 0 -- -- 74
2018-02-09 14:00:00 5.3 2 Sudoeste 6 Oeste 0 -- -- 71
2018-02-09 13:00:00 4.5 3 Noroeste 6 Noroeste 0 -- -- 72
2018-02-09 12:00:00 2.9 0 Calma 4 Norte 0 -- -- 84
2018-02-09 11:00:00 1.6 0 Calma 4 Noroeste 0 -- -- 93
2018-02-09 10:00:00 0.1 2 Norte 5 Norte 0 -- -- 100
2018-02-09 09:00:00 -3.1 2 Nordeste 4 Norte 0 -- -- 99
2018-02-09 08:00:00 -3.7 0 Calma 2 Sudeste 0 -- -- 99
2018-02-09 07:00:00 -3.9 0 Calma 2 Sudeste 0 -- -- 97
2018-02-09 06:00:00 -3.5 3 Sudoeste 5 Sudoeste 0 -- -- 97
2018-02-09 05:00:00 -3.2 4 Sur 9 Sur 0 -- -- 97
2018-02-09 04:00:00 -2.8 5 Sur 9 Sur 0 -- -- 96
2018-02-09 03:00:00 -2.1 2 Noroeste 8 Noroeste 0 -- -- 95
2018-02-09 02:00:00 -1.2 3 Noroeste 12 Noroeste 0 -- -- 95
2018-02-09 01:00:00 -1.1 0 Calma 9 Norte 0 -- -- 92
2018-02-09 00:00:00 -0.4 5 Norte 11 Norte 0 -- -- 91
2018-02-08 23:00:00 0.3 6 Norte 14 Norte 0 -- -- 88
2018-02-08 22:00:00 2.2 14 Noroeste 23 Noroeste 0 -- -- 80
2018-02-08 21:00:00 2.3 14 Noroeste 24 Noroeste 0 -- -- 79
2018-02-08 20:00:00 2.6 14 Noroeste 21 Noroeste 0 -- -- 79
2018-02-08 19:00:00 3.7 8 Noroeste 23 Noroeste 0 -- -- 77
2018-02-08 18:00:00 4.5 14 Noroeste 41 Noroeste 0 -- -- 68
2018-02-08 17:00:00 5.4 23 Noroeste 38 Noroeste 0 -- -- 64
2018-02-08 16:00:00 5.6 20 Noroeste 42 Noroeste 0 -- -- 69
2018-02-08 15:00:00 5.8 24 Noroeste 45 Noroeste 0 -- -- 66
2018-02-08 14:00:00 7.3 31 Noroeste 44 Noroeste 0 -- -- 63
2018-02-08 13:00:00 6.7 24 Noroeste 49 Noroeste 0 -- -- 65
2018-02-08 12:00:00 5.7 34 Noroeste 51 Noroeste 0 -- -- 69
2018-02-08 11:00:00 5.7 29 Noroeste 43 Noroeste 0 -- -- 71
2018-02-08 10:00:00 4.1 18 Noroeste 33 Noroeste 0 -- -- 78
2018-02-08 09:00:00 1.2 12 Noroeste 18 Noroeste 0 -- -- 88
2018-02-08 08:00:00 1.7 12 Noroeste 23 Noroeste 0 -- -- 86
2018-02-08 07:00:00 1.8 8 Noroeste 20 Noroeste 0 -- -- 88
2018-02-08 06:00:00 2 12 Noroeste 21 Noroeste 0 -- -- 86
2018-02-08 05:00:00 1.5 8 Norte 17 Noroeste 0 -- -- 86
2018-02-08 04:00:00 0.6 9 Noroeste 19 Norte 0 -- -- 85
2018-02-08 03:00:00 1.3 9 Noroeste 17 Noroeste 0 -- -- 81
2018-02-08 02:00:00 1.1 5 Noroeste 13 Norte 0 -- -- 81
2018-02-08 01:00:00 0.6 6 Norte 10 Noroeste 0 -- -- 84
2018-02-08 00:00:00 -0.2 5 Norte 15 Noroeste 0 -- -- 85
2018-02-07 23:00:00 0.8 11 Noroeste 23 Norte 0 -- -- 79
2018-02-07 22:00:00 1.6 12 Noroeste 21 Noroeste 0 -- -- 80
2018-02-07 21:00:00 2.7 18 Noroeste 29 Noroeste 0 -- -- 76
2018-02-07 20:00:00 3.1 12 Noroeste 27 Noroeste 0 -- -- 77
2018-02-07 19:00:00 3.7 14 Noroeste 27 Noroeste 0 -- -- 74
2018-02-07 18:00:00 4.5 18 Noroeste 32 Norte 0 -- -- 66
2018-02-07 17:00:00 5.1 21 Norte 40 Noroeste 0 -- -- 60
2018-02-07 16:00:00 6.2 25 Noroeste 43 Noroeste 0 -- -- 53
2018-02-07 15:00:00 7 21 Noroeste 40 Noroeste 0 -- -- 52
2018-02-07 14:00:00 6.4 20 Noroeste 36 Norte 0 -- -- 60
2018-02-07 13:00:00 4.5 17 Norte 44 Norte -- -- -- 59
2018-02-07 12:00:00 5.2 24 Norte 44 Noroeste 0 -- -- 58
2018-02-07 11:00:00 5.2 21 Noroeste 35 Noroeste 0 -- -- 63
2018-02-07 10:00:00 3.2 14 Noroeste 24 Noroeste 0 -- -- 76
2018-02-07 09:00:00 2.7 15 Noroeste 24 Noroeste 0 -- -- 82
2018-02-07 08:00:00 1.9 13 Noroeste 25 Noroeste 0 -- -- 84
2018-02-07 07:00:00 2.4 15 Noroeste 26 Noroeste 0 -- -- 83
2018-02-07 06:00:00 2.2 15 Noroeste 27 Noroeste 0 -- -- 84
2018-02-07 05:00:00 2.1 13 Noroeste 27 Noroeste 0 -- -- 83
2018-02-07 04:00:00 1.9 12 Noroeste 24 Noroeste 0 -- -- 89
2018-02-07 03:00:00 1.8 12 Norte 22 Noroeste 0 -- -- 88
2018-02-07 02:00:00 2.4 13 Norte 22 Norte 0 -- -- 87
2018-02-07 01:00:00 1.6 11 Noroeste 20 Oeste 0 -- -- 89
2018-02-07 00:00:00 2.1 14 Noroeste 32 Noroeste 0 -- -- 88
2018-02-06 23:00:00 2.8 22 Noroeste 35 Noroeste 0 -- -- 82
2018-02-06 22:00:00 2.2 12 Noroeste 22 Noroeste 0 -- -- 85
2018-02-06 21:00:00 2.9 15 Noroeste 22 Noroeste 0 -- -- 79
2018-02-06 20:00:00 3 11 Noroeste 23 Noroeste 0 -- -- 77
2018-02-06 19:00:00 3.2 14 Noroeste 32 Norte 0 -- -- 73
2018-02-06 18:00:00 4.6 19 Noroeste 41 Noroeste 0 -- -- 66
2018-02-06 17:00:00 5.4 25 Noroeste 44 Noroeste 0 -- -- 64
2018-02-06 16:00:00 5.3 25 Noroeste 41 Noroeste 0 -- -- 59
2018-02-06 15:00:00 6.3 30 Noroeste 55 Noroeste 0 -- -- 55
2018-02-06 14:00:00 5.8 30 Noroeste 46 Norte 0 -- -- 57
2018-02-06 13:00:00 5.1 24 Noroeste 39 Noroeste 0 -- -- 58
2018-02-06 12:00:00 4.3 21 Noroeste 39 Norte 0 -- -- 62
2018-02-06 11:00:00 3.4 24 Norte 42 Norte 0 -- -- 65
2018-02-06 10:00:00 2.8 23 Noroeste 38 Noroeste 0 -- -- 71
2018-02-06 09:00:00 2 17 Noroeste 32 Noroeste 0 -- -- 76
2018-02-06 08:00:00 2.5 17 Noroeste 34 Noroeste 0 -- -- 76
2018-02-06 07:00:00 2.5 22 Noroeste 37 Noroeste 0 -- -- 78
2018-02-06 06:00:00 2.8 22 Norte 42 Noroeste 0 -- -- 81
2018-02-06 05:00:00 3.2 13 Norte 33 Norte 0 -- -- 86
2018-02-06 04:00:00 3.5 18 Norte 31 Norte 0 -- -- 86
2018-02-06 03:00:00 3.5 10 Norte 22 Norte 0 -- -- 92
2018-02-06 02:00:00 3.7 13 Norte 22 Norte 0 -- -- 93
2018-02-06 01:00:00 3.8 13 Norte 28 Norte 0 -- -- 93
2018-02-06 00:00:00 3.7 18 Norte 31 Noroeste 0 -- -- 94
2018-02-05 23:00:00 3.6 13 Noroeste 26 Noroeste 0 -- -- 97
2018-02-05 22:00:00 3.5 15 Noroeste 37 Noroeste 0 -- -- 95
2018-02-05 21:00:00 3.3 18 Noroeste 33 Norte 1 -- -- 95
2018-02-05 20:00:00 3.7 17 Norte 38 Noroeste 0.8 -- -- 94
2018-02-05 19:00:00 3.6 18 Norte 36 Norte 1 -- -- 92
2018-02-05 18:00:00 3.7 19 Noroeste 35 Norte 0.4 -- -- 92
2018-02-05 17:00:00 4.2 25 Norte 37 Norte 0.4 -- -- 90
2018-02-05 16:00:00 4.2 18 Noroeste 34 Noroeste 0 -- -- 96
2018-02-05 15:00:00 3.9 16 Noroeste 37 Noroeste 0.4 -- -- 97
2018-02-05 14:00:00 4.1 18 Norte 34 Norte 0.2 -- -- 94
2018-02-05 13:00:00 4.5 18 Noroeste 35 Noroeste 0.8 -- -- 97
2018-02-05 12:00:00 4.2 17 Noroeste 28 Noroeste 0.8 -- -- 98
2018-02-05 11:00:00 3.8 16 Noroeste 27 Noroeste 0.8 -- -- 99
2018-02-05 10:00:00 3.5 11 Noroeste 22 Noroeste 0.4 -- -- 100
2018-02-05 09:00:00 3.3 9 Noroeste 19 Noroeste 0.2 -- -- 100
2018-02-05 08:00:00 3.2 13 Noroeste 20 Noroeste 0 -- -- 100
2018-02-05 07:00:00 3.1 10 Noroeste 20 Noroeste 0 -- -- 100
2018-02-05 06:00:00 3 13 Noroeste 22 Noroeste 0 -- -- 100
2018-02-05 05:00:00 3 10 Noroeste 17 Noroeste 0 -- -- 100
2018-02-05 04:00:00 2.9 8 Noroeste 12 Noroeste 0 -- -- 100
2018-02-05 03:00:00 3 5 Noroeste 11 Noroeste 0 -- -- 99
2018-02-05 02:00:00 2.9 9 Oeste 14 Oeste 0 -- -- 97
2018-02-05 01:00:00 3.2 0 Calma 9 Este 0.4 -- -- 98
2018-02-05 00:00:00 3.4 5 Nordeste 14 Norte 1 -- -- 97
2018-02-04 23:00:00 3.7 8 Norte 17 Norte 2 -- -- 95
2018-02-04 22:00:00 4.4 10 Noroeste 18 Noroeste 1.6 -- -- 95
2018-02-04 21:00:00 4.7 10 Norte 27 Noroeste 1 -- -- 94
2018-02-04 20:00:00 5 13 Norte 24 Norte 0.6 -- -- 91
2018-02-04 19:00:00 5.5 13 Noroeste 23 Noroeste 0 -- -- 86
2018-02-04 18:00:00 5.8 9 Norte 20 Norte 0.2 -- -- 86
2018-02-04 17:00:00 6.3 11 Norte 24 Norte 0 -- -- 81
2018-02-04 16:00:00 6.6 13 Norte 24 Norte 0.2 -- -- 82
2018-02-04 15:00:00 6.3 14 Norte 27 Nordeste 0.6 -- -- 84
2018-02-04 14:00:00 6.2 13 Norte 30 Noroeste 0.2 -- -- 83
2018-02-04 13:00:00 6.4 19 Noroeste 30 Noroeste 0 -- -- 79
2018-02-04 12:00:00 6.2 17 Noroeste 30 Noroeste 0 -- -- 80
2018-02-04 11:00:00 5.4 16 Noroeste 27 Noroeste 0 -- -- 87
2018-02-04 10:00:00 4.5 15 Noroeste 22 Noroeste 0 -- -- 93
2018-02-04 09:00:00 3.6 11 Noroeste 17 Noroeste 0 -- -- 95
2018-02-04 08:00:00 3.5 8 Noroeste 15 Noroeste 0 -- -- 97
2018-02-04 07:00:00 3.8 8 Noroeste 12 Noroeste 0 -- -- 97
2018-02-04 06:00:00 4 9 Noroeste 16 Noroeste 0.2 -- -- 97
2018-02-04 05:00:00 4.2 8 Noroeste 13 Noroeste 0.2 -- -- 98
2018-02-04 04:00:00 4.4 4 Noroeste 12 Noroeste 0 -- -- 96
2018-02-04 03:00:00 4.7 7 Noroeste 16 Noroeste 0.2 -- -- 95
2018-02-04 02:00:00 4.9 8 Noroeste 12 Noroeste 0 -- -- 95
2018-02-04 01:00:00 5.1 6 Norte 11 Norte 0 -- -- 93
2018-02-04 00:00:00 5.7 6 Noroeste 13 Norte 0 -- -- 94
2018-02-03 23:00:00 5.9 0 Calma 16 Noroeste 0.2 -- -- 92
2018-02-03 22:00:00 6.4 9 Noroeste 16 Norte 0 -- -- 88
2018-02-03 21:00:00 7.2 11 Noroeste 27 Noroeste 0 -- -- 82
2018-02-03 20:00:00 7 11 Noroeste 17 Noroeste 0 -- -- 82
2018-02-03 19:00:00 7.1 9 Norte 17 Norte 0 -- -- 82
2018-02-03 18:00:00 7.7 13 Noroeste 27 Noroeste 0 -- -- 79
2018-02-03 17:00:00 8.2 8 Noroeste 21 Noroeste 0.2 -- -- 79
2018-02-03 16:00:00 9.3 13 Norte 21 Norte 0 -- -- 68
2018-02-03 15:00:00 9.2 4 Nordeste 21 Noroeste 0 -- -- 62
2018-02-03 14:00:00 8.3 12 Norte 21 Noroeste 0 -- -- 63
2018-02-03 13:00:00 8 16 Noroeste 28 Noroeste 0 -- -- 67
2018-02-03 12:00:00 8.2 19 Norte 37 Noroeste 0 -- -- 65
2018-02-03 11:00:00 8.3 14 Noroeste 24 Noroeste 0 -- -- 62
2018-02-03 10:00:00 5.3 10 Noroeste 18 Noroeste 0 -- -- 74
2018-02-03 09:00:00 4 6 Noroeste 18 Noroeste 0 -- -- 78
2018-02-03 08:00:00 3.9 14 Noroeste 37 Noroeste 0 -- -- 83
2018-02-03 07:00:00 3.7 19 Noroeste 35 Noroeste 0 -- -- 81
2018-02-03 06:00:00 4 18 Noroeste 37 Noroeste 0 -- -- 85
2018-02-03 05:00:00 3.2 13 Noroeste 24 Oeste 0 -- -- 84
2018-02-03 04:00:00 3.4 21 Noroeste 36 Noroeste 0 -- -- 82
2018-02-03 03:00:00 3.4 21 Noroeste 34 Noroeste 0 -- -- 82
2018-02-03 02:00:00 3 17 Noroeste 34 Noroeste 0 -- -- 85
2018-02-03 01:00:00 3.1 17 Noroeste 32 Noroeste 0 -- -- 84
2018-02-03 00:00:00 3.4 12 Norte 32 Noroeste 0 -- -- 87
2018-02-02 23:00:00 3.4 19 Noroeste 33 Noroeste 0 -- -- 84
2018-02-02 22:00:00 3.7 16 Noroeste 33 Noroeste 0 -- -- 80
2018-02-02 21:00:00 3.9 16 Noroeste 29 Noroeste 0 -- -- 83
2018-02-02 20:00:00 3.5 21 Noroeste 39 Noroeste 0 -- -- 82
2018-02-02 19:00:00 4 19 Noroeste 50 Noroeste 0 -- -- 81
2018-02-02 18:00:00 4.7 31 Noroeste 50 Noroeste 0 -- -- 72
2018-02-02 17:00:00 6.3 25 Noroeste 46 Noroeste 0 -- -- 66
2018-02-02 16:00:00 6.8 23 Noroeste 44 Norte 0 -- -- 59
2018-02-02 15:00:00 7.2 25 Noroeste 46 Noroeste 0 -- -- 56
2018-02-02 14:00:00 7.1 26 Noroeste 45 Noroeste 0 -- -- 60
2018-02-02 13:00:00 7.3 30 Noroeste 52 Noroeste 0 -- -- 64
2018-02-02 12:00:00 7.6 30 Noroeste 50 Noroeste 0 -- -- 61
2018-02-02 11:00:00 6.2 33 Noroeste 50 Noroeste 0 -- -- 68
2018-02-02 10:00:00 4.5 23 Noroeste 39 Noroeste 0 -- -- 76
2018-02-02 09:00:00 1.9 22 Noroeste 33 Noroeste 0 -- -- 88
2018-02-02 08:00:00 2.2 11 Noroeste 30 Noroeste 0 -- -- 87
2018-02-02 07:00:00 2.3 18 Noroeste 26 Noroeste 0 -- -- 87
2018-02-02 06:00:00 2.2 14 Noroeste 32 Noroeste 0 -- -- 93
2018-02-02 05:00:00 2.6 15 Noroeste 32 Noroeste 0 -- -- 92
2018-02-02 04:00:00 2.9 15 Noroeste 27 Noroeste 0 -- -- 90
2018-02-02 03:00:00 2.7 13 Noroeste 30 Noroeste 0 -- -- 86
2018-02-02 02:00:00 3.1 16 Noroeste 23 Noroeste 0 -- -- 88
2018-02-02 01:00:00 2.4 13 Noroeste 23 Noroeste 0 -- -- 89
2018-02-02 00:00:00 2 6 Norte 17 Noroeste 0 -- -- 89
2018-02-01 23:00:00 2.8 12 Noroeste 24 Noroeste 0 -- -- 86
2018-02-01 22:00:00 3.2 16 Noroeste 28 Noroeste 0 -- -- 84
2018-02-01 21:00:00 3.7 14 Noroeste 27 Noroeste 0 -- -- 83
2018-02-01 20:00:00 4.3 16 Noroeste 37 Noroeste 0 -- -- 79
2018-02-01 19:00:00 4.9 18 Noroeste 40 Noroeste 0 -- -- 75
2018-02-01 18:00:00 5.7 22 Noroeste 40 Noroeste 0 -- -- 72
2018-02-01 17:00:00 6.3 20 Noroeste 36 Noroeste 0 -- -- 74
2018-02-01 16:00:00 6.1 21 Norte 49 Norte 0 -- -- 83
2018-02-01 15:00:00 9.4 26 Noroeste 45 Noroeste 0 -- -- 64
2018-02-01 14:00:00 10.3 28 Noroeste 47 Noroeste 0 -- -- 58
2018-02-01 13:00:00 9.4 18 Noroeste 44 Noroeste 0 -- -- 64
2018-02-01 12:00:00 8.7 20 Noroeste 35 Noroeste 0 -- -- 72
2018-02-01 11:00:00 8.4 18 Noroeste 29 Norte 0 -- -- 80
2018-02-01 10:00:00 6.8 13 Noroeste 23 Noroeste 0.2 -- -- 99
2018-02-01 09:00:00 4.3 3 Sudeste 13 Noroeste 0 -- -- 100
2018-02-01 08:00:00 3.4 5 Noroeste 13 Noroeste 0 -- -- 100
2018-02-01 07:00:00 2.3 5 Sudoeste 9 Sudoeste 0 -- -- 100
2018-02-01 06:00:00 1.4 0 Calma 5 Norte 0 -- -- 100
2018-02-01 05:00:00 0.8 3 Norte 6 Sur 0 -- -- 100
2018-02-01 04:00:00 1.3 2 Sur 6 Oeste 0 -- -- 100
2018-02-01 03:00:00 0.8 2 Noroeste 7 Sudeste 0 -- -- 99
2018-02-01 02:00:00 0.8 0 Calma 7 Norte 0 -- -- 99
2018-02-01 01:00:00 0.8 6 Norte 8 Norte 0 -- -- 99
2018-02-01 00:00:00 0.5 3 Sur 5 Sur 0 -- -- 97
2018-01-31 23:00:00 1.1 0 Calma 2 Sur 0 -- -- 95
2018-01-31 22:00:00 1.9 2 Sudoeste 9 Sur 0 -- -- 94
2018-01-31 21:00:00 2.8 3 Sur 5 Sudoeste 0 -- -- 91
2018-01-31 20:00:00 4.5 4 Sudoeste 6 Sudoeste 0 -- -- 86
2018-01-31 19:00:00 7.4 4 Sudoeste 5 Sudoeste 0 -- -- 79
2018-01-31 18:00:00 11.2 3 Oeste 5 Sur 0 -- -- 66
2018-01-31 17:00:00 11.9 0 Calma 6 Sudeste 0 -- -- 63
2018-01-31 16:00:00 11.4 3 Noroeste 5 Sudeste 0 -- -- 65
2018-01-31 15:00:00 9.9 0 Calma 9 Nordeste 0 -- -- 73
2018-01-31 14:00:00 8 3 Norte 9 Norte 0 -- -- 77
2018-01-31 13:00:00 6.4 4 Nordeste 9 Nordeste 0 -- -- 89
2018-01-31 12:00:00 4.3 3 Nordeste 6 Nordeste 0 -- -- 98
2018-01-31 11:00:00 1.9 0 Calma 3 Noroeste 0 -- -- 100
2018-01-31 10:00:00 -1.4 0 Calma 2 Sudeste 0 -- -- 100
2018-01-31 09:00:00 -2.5 0 Calma 2 Oeste 0 -- -- 100
2018-01-31 08:00:00 -2.6 0 Calma 5 Sudoeste 0 -- -- 99
2018-01-31 07:00:00 -2.8 0 Calma 3 Sur 0 -- -- 99
2018-01-31 06:00:00 -2.3 0 Calma 3 Norte 0 -- -- 99
2018-01-31 05:00:00 -1.7 0 Calma 4 Sudoeste 0 -- -- 99
2018-01-31 04:00:00 -1.6 2 Sur 4 Sudoeste 0 -- -- 98
2018-01-31 03:00:00 -1.2 3 Sudoeste 4 Sudoeste 0 -- -- 98
2018-01-31 02:00:00 -0.5 2 Noroeste 5 Noroeste 0 -- -- 98
2018-01-31 01:00:00 -0.4 0 Calma 2 Noroeste 0 -- -- 96
2018-01-31 00:00:00 0.1 0 Calma 3 Sur 0 -- -- 94
2018-01-30 23:00:00 1.4 0 Calma 3 Sur 0 -- -- 93
2018-01-30 22:00:00 2.6 2 Sudeste 7 Sur 0 -- -- 93
2018-01-30 21:00:00 3.6 5 Sur 7 Sur 0 -- -- 89
2018-01-30 20:00:00 5.1 5 Sudoeste 8 Sudoeste 0 -- -- 85
2018-01-30 19:00:00 8.2 4 Sudoeste 9 Sudoeste 0 -- -- 76
2018-01-30 18:00:00 12.2 3 Noroeste 5 Noroeste 0 -- -- 61
2018-01-30 17:00:00 13 3 Oeste 6 Oeste 0 -- -- 52
2018-01-30 16:00:00 12.8 2 Sudeste 8 Este -- -- -- 54
2018-01-30 15:00:00 11.7 3 Nordeste 9 Nordeste 0 -- -- 58
2018-01-30 14:00:00 10.8 2 Oeste 7 Norte 0 -- -- 65
2018-01-30 13:00:00 9.1 4 Noroeste 7 Nordeste 0 -- -- 72
2018-01-30 12:00:00 7.1 3 Nordeste 5 Norte 0 -- -- 80
2018-01-30 11:00:00 4 0 Calma 5 Este 0 -- -- 95
2018-01-30 10:00:00 1.5 3 Nordeste 5 Nordeste 0 -- -- 99
2018-01-30 09:00:00 -1.3 0 Calma 3 Sur 0 -- -- 100
2018-01-30 08:00:00 -1.7 2 Sudoeste 4 Sur 0 -- -- 98
2018-01-30 07:00:00 -1.3 0 Calma 5 Sudoeste 0 -- -- 98
2018-01-30 06:00:00 -0.9 0 Calma 4 Noroeste 0 -- -- 98
2018-01-30 05:00:00 0.1 0 Calma 5 Sudeste 0 -- -- 98
2018-01-30 04:00:00 0.5 4 Oeste 9 Sudoeste 0 -- -- 98
2018-01-30 03:00:00 0.5 5 Sudoeste 9 Oeste 0 -- -- 97
2018-01-30 02:00:00 0.6 4 Sudoeste 6 Sudoeste 0 -- -- 95
2018-01-30 01:00:00 1.5 3 Sudoeste 9 Sur 0 -- -- 96
2018-01-30 00:00:00 1.8 5 Sudoeste 9 Sudoeste 0 -- -- 94
2018-01-29 23:00:00 3.1 4 Sudoeste 7 Sudoeste 0 -- -- 91
2018-01-29 22:00:00 3.2 0 Calma 8 Sudoeste 0 -- -- 92
2018-01-29 21:00:00 4.3 6 Sudoeste 8 Sudoeste 0 -- -- 90
2018-01-29 20:00:00 6.2 0 Calma 8 Sudoeste 0 -- -- 86
2018-01-29 19:00:00 8.9 7 Sudoeste 8 Sudoeste 0 -- -- 78
2018-01-29 18:00:00 13.9 5 Sudoeste 8 Sudoeste 0 -- -- 68
2018-01-29 17:00:00 15.1 3 Noroeste 8 Norte 0 -- -- 52
2018-01-29 16:00:00 14.3 5 Norte 10 Noroeste 0 -- -- 51
2018-01-29 15:00:00 13.2 3 Norte 9 Nordeste 0 -- -- 56
2018-01-29 14:00:00 12.1 3 Noroeste 8 Noroeste 0 -- -- 61
2018-01-29 13:00:00 10.1 4 Oeste 7 Oeste 0 -- -- 68
2018-01-29 12:00:00 8.4 3 Nordeste 5 Nordeste 0 -- -- 76
2018-01-29 11:00:00 5.9 3 Oeste 10 Noroeste 0 -- -- 91
2018-01-29 10:00:00 2.3 0 Calma 0 Calma 0 -- -- 100
2018-01-29 09:00:00 -1.5 0 Calma 0 Calma 0 -- -- 100
2018-01-29 08:00:00 -1.7 0 Calma 4 Sudoeste 0 -- -- 100
2018-01-29 07:00:00 -1.8 0 Calma 3 Sudoeste 0 -- -- 99
2018-01-29 06:00:00 -1.4 3 Sudoeste 4 Sudoeste 0 -- -- 99
2018-01-29 05:00:00 -1.1 3 Sudoeste 4 Sudoeste 0 -- -- 98
2018-01-29 04:00:00 -0.9 2 Sudoeste 4 Sudoeste 0 -- -- 98
2018-01-29 03:00:00 -0.5 2 Oeste 4 Oeste 0 -- -- 98
2018-01-29 02:00:00 -0.4 0 Calma 4 Sudoeste 0 -- -- 97
2018-01-29 01:00:00 0.2 2 Oeste 5 Sudoeste 0 -- -- 96
2018-01-29 00:00:00 0.9 2 Sudoeste 3 Sudoeste 0 -- -- 95
2018-01-28 23:00:00 1.8 2 Sudoeste 6 Sudoeste 0 -- -- 94
2018-01-28 22:00:00 2.9 2 Sudoeste 4 Sur 0 -- -- 91
2018-01-28 21:00:00 4.1 3 Sudoeste 8 Sur 0 -- -- 89
2018-01-28 20:00:00 5.7 6 Sudoeste 8 Sudoeste 0 -- -- 84
2018-01-28 19:00:00 8.4 4 Sudoeste 7 Oeste 0 -- -- 74
2018-01-28 18:00:00 12.7 5 Noroeste 8 Noroeste 0 -- -- 60
2018-01-28 17:00:00 13.1 4 Noroeste 10 Norte 0 -- -- 55
2018-01-28 16:00:00 13.1 6 Noroeste 13 Noroeste 0 -- -- 53
2018-01-28 15:00:00 12.5 8 Norte 17 Noroeste 0 -- -- 53
2018-01-28 14:00:00 11.6 11 Norte 25 Norte 0 -- -- 54
2018-01-28 13:00:00 10.3 14 Noroeste 21 Norte 0 -- -- 65
2018-01-28 12:00:00 8.3 11 Norte 18 Norte 0 -- -- 71
2018-01-28 11:00:00 6 13 Noroeste 28 Noroeste 0 -- -- 78
2018-01-28 10:00:00 3.7 15 Noroeste 22 Noroeste 0 -- -- 88
2018-01-28 09:00:00 1.6 11 Noroeste 25 Noroeste 0 -- -- 94
2018-01-28 08:00:00 1.3 13 Noroeste 23 Noroeste 0 -- -- 95
2018-01-28 07:00:00 0.9 8 Noroeste 23 Noroeste 0 -- -- 94
2018-01-28 06:00:00 1.3 14 Noroeste 19 Noroeste 0 -- -- 95
2018-01-28 05:00:00 0.9 10 Noroeste 14 Noroeste 0 -- -- 95
2018-01-28 04:00:00 1.2 9 Noroeste 15 Noroeste 0 -- -- 94
2018-01-28 03:00:00 1.8 8 Noroeste 17 Noroeste 0 -- -- 91
2018-01-28 02:00:00 2.5 11 Noroeste 21 Noroeste 0 -- -- 91
2018-01-28 01:00:00 2.6 11 Noroeste 17 Noroeste 0 -- -- 91
2018-01-28 00:00:00 2.8 11 Noroeste 17 Norte 0 -- -- 90
2018-01-27 23:00:00 3.7 10 Noroeste 22 Noroeste 0 -- -- 85
2018-01-27 22:00:00 4.5 13 Noroeste 26 Noroeste 0 -- -- 80
2018-01-27 21:00:00 5.3 18 Noroeste 30 Noroeste 0 -- -- 75
2018-01-27 20:00:00 6 20 Noroeste 36 Noroeste 0 -- -- 72
2018-01-27 19:00:00 6.7 22 Noroeste 39 Noroeste 0 -- -- 67
2018-01-27 18:00:00 7.6 23 Noroeste 44 Noroeste 0 -- -- 64
2018-01-27 17:00:00 8.7 30 Norte 46 Norte 0 -- -- 60
2018-01-27 16:00:00 9.7 28 Norte 53 Norte 0 -- -- 58
2018-01-27 15:00:00 9.2 36 Norte 55 Norte 0 -- -- 64
2018-01-27 14:00:00 9.9 36 Norte 58 Noroeste 0 -- -- 61
2018-01-27 13:00:00 9.5 30 Norte 46 Noroeste 0 -- -- 66
2018-01-27 12:00:00 8.3 23 Norte 36 Noroeste 0 -- -- 76
2018-01-27 11:00:00 6.6 20 Noroeste 40 Noroeste 0 -- -- 89
2018-01-27 10:00:00 6.7 24 Noroeste 39 Norte 0 -- -- 82
2018-01-27 09:00:00 5.7 18 Noroeste 28 Noroeste 0 -- -- 90
2018-01-27 08:00:00 5.2 22 Noroeste 34 Noroeste 0 -- -- 91
2018-01-27 07:00:00 4.8 14 Noroeste 26 Noroeste 0 -- -- 94
2018-01-27 06:00:00 4.7 13 Noroeste 26 Noroeste 0.2 -- -- 94
2018-01-27 05:00:00 5.1 15 Noroeste 28 Noroeste 0 -- -- 96
2018-01-27 04:00:00 5.1 17 Noroeste 32 Noroeste 0.2 -- -- 95
2018-01-27 03:00:00 5.1 15 Noroeste 29 Noroeste 0 -- -- 94
2018-01-27 02:00:00 4.9 11 Noroeste 23 Noroeste 0 -- -- 95
2018-01-27 01:00:00 4.6 6 Norte 15 Norte 0.4 -- -- 97
2018-01-27 00:00:00 4.9 5 Nordeste 21 Norte 1 -- -- 96
2018-01-26 23:00:00 4.7 9 Norte 30 Norte 1 -- -- 96
2018-01-26 22:00:00 4.8 26 Noroeste 48 Noroeste 0.2 -- -- 93
2018-01-26 21:00:00 5.1 18 Noroeste 30 Norte 0.2 -- -- 93
2018-01-26 20:00:00 4.9 15 Noroeste 42 Noroeste 0.4 -- -- 92
2018-01-26 19:00:00 5.5 24 Noroeste 45 Noroeste 0 -- -- 88
2018-01-26 18:00:00 5.9 24 Noroeste 42 Noroeste 0.2 -- -- 88
2018-01-26 17:00:00 6.3 22 Noroeste 45 Noroeste -- -- -- 92
2018-01-26 16:00:00 8.8 30 Noroeste 48 Noroeste 0 -- -- 72
2018-01-26 15:00:00 9.9 35 Noroeste 55 Noroeste 0 -- -- 67
2018-01-26 14:00:00 9.8 35 Noroeste 53 Noroeste 0 -- -- 69
2018-01-26 13:00:00 9 39 Noroeste 59 Noroeste 0 -- -- 72
2018-01-26 12:00:00 8.3 34 Noroeste 50 Noroeste 0 -- -- 74
2018-01-26 11:00:00 8 29 Noroeste 48 Noroeste 0 -- -- 77
2018-01-26 10:00:00 6.8 26 Noroeste 41 Noroeste 0 -- -- 83
2018-01-26 09:00:00 5.1 17 Noroeste 31 Noroeste 0 -- -- 88
2018-01-26 08:00:00 4.3 17 Noroeste 31 Noroeste 0 -- -- 90
2018-01-26 07:00:00 4.8 21 Noroeste 35 Noroeste 0 -- -- 89
2018-01-26 06:00:00 5.2 24 Noroeste 43 Noroeste 0 -- -- 89
2018-01-26 05:00:00 5.5 25 Noroeste 41 Noroeste 0 -- -- 88
2018-01-26 04:00:00 5.5 22 Noroeste 35 Noroeste 0 -- -- 90
2018-01-26 03:00:00 5.4 18 Noroeste 30 Noroeste 0 -- -- 92
2018-01-26 02:00:00 5.2 14 Noroeste 22 Noroeste 0 -- -- 96
2018-01-26 01:00:00 5 9 Noroeste 22 Noroeste 0.4 -- -- 97
2018-01-26 00:00:00 5.2 12 Noroeste 31 Oeste 0.2 -- -- 95
2018-01-25 23:00:00 5.4 17 Noroeste 28 Noroeste 0.4 -- -- 96
2018-01-25 22:00:00 5.6 17 Noroeste 27 Noroeste 0.2 -- -- 97
2018-01-25 21:00:00 6 16 Noroeste 31 Noroeste 0.6 -- -- 98
2018-01-25 20:00:00 7.2 15 Noroeste 26 Noroeste 1.8 -- -- 99
2018-01-25 19:00:00 7.3 14 Noroeste 21 Noroeste 0.2 -- -- 99
2018-01-25 18:00:00 7.4 5 Noroeste 10 Norte 0 -- -- 98
2018-01-25 17:00:00 7.5 0 Calma 11 Noroeste 0.2 -- -- 98
2018-01-25 16:00:00 7.5 7 Noroeste 18 Noroeste 1.2 -- -- 97
2018-01-25 15:00:00 8.4 9 Noroeste 14 Noroeste 0 -- -- 90
2018-01-25 14:00:00 8.8 12 Sur 31 Sudeste 0 -- -- 92
2018-01-25 13:00:00 8.8 18 Sudeste 28 Sudeste 0 -- -- 94
2018-01-25 12:00:00 7.8 22 Sudeste 32 Sudeste 0 -- -- 99
2018-01-25 11:00:00 6.9 23 Sudeste 38 Sudeste 0 -- -- 100
2018-01-25 10:00:00 6.2 13 Sudeste 31 Sudeste 0 -- -- 100
2018-01-25 09:00:00 6.3 18 Sudeste 32 Sudeste 0 -- -- 99
2018-01-25 08:00:00 6.9 9 Sudeste 18 Sudeste 0 -- -- 99
2018-01-25 07:00:00 6.9 5 Sudeste 12 Sudeste 0 -- -- 99
2018-01-25 06:00:00 6.9 4 Sur 9 Sur 0 -- -- 98
2018-01-25 05:00:00 6.9 0 Calma 2 Sur 0 -- -- 98
2018-01-25 04:00:00 6.8 0 Calma 2 Noroeste 0 -- -- 98
2018-01-25 03:00:00 6.8 3 Noroeste 10 Noroeste 0 -- -- 98
2018-01-25 02:00:00 7.1 5 Norte 9 Noroeste 0 -- -- 97
2018-01-25 01:00:00 7 0 Calma -- -- 0 -- -- 97
2018-01-25 00:00:00 7 0 Calma 0 Calma 0 -- -- 96
2018-01-24 23:00:00 7.1 0 Calma 6 Noroeste 0 -- -- 95
2018-01-24 22:00:00 7.4 4 Noroeste 9 Noroeste 0 -- -- 95
2018-01-24 21:00:00 7.5 4 Noroeste 8 Norte 0 -- -- 95
2018-01-24 20:00:00 7.7 3 Noroeste 7 Noroeste 0 -- -- 96
2018-01-24 19:00:00 8 2 Norte 5 Norte 0 -- -- 95
2018-01-24 18:00:00 8.8 2 Norte 5 Norte 0 -- -- 94
2018-01-24 17:00:00 9 0 Calma 5 Norte 0 -- -- 94
2018-01-24 16:00:00 8.9 0 Calma 5 Norte 0 -- -- 99
2018-01-24 15:00:00 8.1 3 Noroeste 9 Norte 0 -- -- 100
2018-01-24 14:00:00 7.3 2 Noroeste 6 Oeste 0 -- -- 100
2018-01-24 13:00:00 6.7 0 Calma 3 Nordeste 0 -- -- 100
2018-01-24 12:00:00 6.1 0 Calma 3 Nordeste 0 -- -- 100
2018-01-24 11:00:00 5.6 2 Norte 3 Norte 0 -- -- 100
2018-01-24 10:00:00 4.7 0 Calma 5 Sur 0 -- -- 100
2018-01-24 09:00:00 4 3 Sur 5 Sur 0 -- -- 100
2018-01-24 08:00:00 4 2 Sudoeste 4 Sudoeste 0 -- -- 100
2018-01-24 07:00:00 3.8 3 Norte 8 Noroeste 0 -- -- 100
2018-01-24 06:00:00 2.8 6 Oeste 11 Oeste 0 -- -- 99
2018-01-24 05:00:00 1.3 0 Calma 4 Sudoeste 0 -- -- 98
2018-01-24 04:00:00 2 5 Oeste 6 Oeste 0 -- -- 97
2018-01-24 03:00:00 2.6 0 Calma -- -- 0 -- -- 97
2018-01-24 02:00:00 3.5 0 Calma 6 Sudoeste 0 -- -- 96
2018-01-24 01:00:00 4.6 3 Sudoeste 5 Sudoeste 0 -- -- 93
2018-01-24 00:00:00 6.1 2 Sur 8 Noroeste -- -- -- 90
2018-01-23 23:00:00 7.2 6 Noroeste 14 Noroeste 0 -- -- 91
2018-01-23 22:00:00 8 10 Noroeste 14 Noroeste 0 -- -- 89
2018-01-23 21:00:00 8.9 8 Noroeste 14 Noroeste 0 -- -- 87
2018-01-23 20:00:00 9.5 9 Noroeste 12 Oeste 0 -- -- 85
2018-01-23 19:00:00 11.6 9 Noroeste 14 Noroeste 0 -- -- 78
2018-01-23 18:00:00 13.8 11 Noroeste 27 Noroeste 0 -- -- 71
2018-01-23 17:00:00 16.2 17 Noroeste 28 Noroeste 0 -- -- 64
2018-01-23 16:00:00 17 14 Noroeste 29 Noroeste 0 -- -- 62
2018-01-23 15:00:00 17.2 18 Noroeste 35 Noroeste 0 -- -- 60
2018-01-23 14:00:00 16.2 21 Noroeste 33 Noroeste 0 -- -- 64
2018-01-23 13:00:00 16.1 22 Noroeste 32 Noroeste 0 -- -- 65
2018-01-23 12:00:00 14.5 15 Noroeste 25 Noroeste 0 -- -- 72
2018-01-23 11:00:00 12.7 15 Noroeste 22 Noroeste 0 -- -- 80
2018-01-23 10:00:00 10.9 10 Noroeste 15 Noroeste 0 -- -- 87
2018-01-23 09:00:00 9.8 7 Noroeste 12 Noroeste 0 -- -- 89
2018-01-23 08:00:00 9.5 9 Noroeste 22 Noroeste 0 -- -- 89
2018-01-23 07:00:00 9.1 14 Noroeste 21 Noroeste 0 -- -- 90
2018-01-23 06:00:00 9.3 10 Noroeste 18 Noroeste 0 -- -- 86
2018-01-23 05:00:00 10.1 10 Noroeste 20 Noroeste 0 -- -- 84
2018-01-23 04:00:00 9.7 10 Norte 17 Noroeste 0 -- -- 86
2018-01-23 03:00:00 10.8 11 Noroeste 18 Noroeste 0 -- -- 82
2018-01-23 02:00:00 10.8 12 Noroeste 18 Noroeste 0 -- -- 80
2018-01-23 01:00:00 10.9 10 Norte 23 Noroeste 0 -- -- 79
2018-01-23 00:00:00 10.9 13 Noroeste 18 Noroeste 0 -- -- 79
2018-01-22 23:00:00 10.8 12 Noroeste 16 Norte 0 -- -- 79
2018-01-22 22:00:00 10.5 10 Norte 15 Noroeste 0 -- -- 81
2018-01-22 21:00:00 10.6 6 Noroeste 13 Noroeste 0 -- -- 79
2018-01-22 20:00:00 10.5 9 Noroeste 15 Noroeste 0 -- -- 79
2018-01-22 19:00:00 11.8 11 Noroeste 18 Noroeste 0 -- -- 73
2018-01-22 18:00:00 13.8 12 Noroeste 27 Noroeste 0 -- -- 66
2018-01-22 17:00:00 15.7 17 Noroeste 33 Noroeste 0 -- -- 58
2018-01-22 16:00:00 16.5 22 Noroeste 37 Norte 0 -- -- 58
2018-01-22 15:00:00 15.5 26 Noroeste 41 Noroeste 0 -- -- 59
2018-01-22 14:00:00 14.8 22 Noroeste 41 Noroeste 0 -- -- 64
2018-01-22 13:00:00 14.7 26 Noroeste 39 Noroeste 0 -- -- 63
2018-01-22 12:00:00 14 23 Noroeste 33 Noroeste 0 -- -- 67
2018-01-22 11:00:00 12.5 16 Noroeste 27 Oeste 0 -- -- 77
2018-01-22 10:00:00 9.1 13 Noroeste 22 Noroeste 0 -- -- 90
2018-01-22 09:00:00 6.6 11 Noroeste 16 Noroeste 0 -- -- 94
2018-01-22 08:00:00 6.9 12 Noroeste 19 Noroeste 0 -- -- 94
2018-01-22 07:00:00 6.9 10 Noroeste 18 Noroeste 0 -- -- 93
2018-01-22 06:00:00 7.3 11 Noroeste 19 Noroeste 0 -- -- 92
2018-01-22 05:00:00 7.6 14 Noroeste 19 Noroeste 0 -- -- 93
2018-01-22 04:00:00 6.8 10 Noroeste 18 Oeste 0 -- -- 93
2018-01-22 03:00:00 7.4 12 Oeste 18 Oeste 0 -- -- 93
2018-01-22 02:00:00 8.1 12 Noroeste 17 Noroeste 0 -- -- 92
2018-01-22 01:00:00 8.1 9 Noroeste 16 Noroeste 0 -- -- 89
2018-01-22 00:00:00 9.7 11 Noroeste 19 Noroeste 0 -- -- 85